(°C)
(°C)
KDK
KDK
KDK
KDK
KDK
K
K
(km/h)
10-18
10-17
9-16
9-16
9-15
9-16
9-16
(mm)
0
0
0
0
0
0
0
(%)
1
0
0
0
0
0
0

Napfelkelte

/ -18.5°
sun-icon
UV 1
06:05
18:12
Hold (fogyó félhold) (231°)
18:33
12:04

METAR 64.6°É 40.72°K (ULAA)-ért

Idő Feltételek Hőmérséklet/
Harmatpont
Szél Látási viszonyok Időjárás Felhők Légnyomás Módosítás Nyers
VFR 9°C / 6°C 140º variable 100º to 170º 4kt >10km - Scattered Clouds 3000ft 1005 No Significant change ULAA 251730Z 14002MPS 100V170 9999 SCT030 09/06 Q1005 R08/CLRD70 NOSIG RMK QFE753/1004
VFR 10°C / 5°C 160º variable 120º to 210º 4kt >10km - Scattered Clouds 3000ft 1005 No Significant change ULAA 251700Z 16002MPS 120V210 9999 SCT030 10/05 Q1005 R08/CLRD70 NOSIG RMK QFE753/1004
VFR 10°C / 6°C 150º variable 110º to 200º 4kt >10km - Scattered Clouds 3000ft 1005 No Significant change ULAA 251630Z 15002MPS 110V200 9999 SCT030 10/06 Q1005 R08/CLRD70 NOSIG RMK QFE753/1004
VFR 10°C / 6°C 150º variable 100º to 200º 6kt >10km - Scattered Clouds 3000ft 1005 No Significant change ULAA 251600Z 15003MPS 100V200 9999 SCT030 10/06 Q1005 R08/CLRD70 NOSIG RMK QFE753/1004
VFR 10°C / 6°C 150º variable 110º to 190º 6kt >10km - Scattered Clouds 3000ft 1005 No Significant change ULAA 251530Z 15003MPS 110V190 9999 SCT030 10/06 Q1005 R08/CLRD70 NOSIG RMK QFE753/1004
VFR 10°C / 6°C 120º 4kt >10km - Scattered Clouds 3000ft 1005 No Significant change ULAA 251500Z 12002MPS 9999 SCT030 10/06 Q1005 R08/CLRD70 NOSIG RMK QFE752/1003
VFR 10°C / 6°C 130º variable 100º to 170º 4kt >10km - Scattered Clouds 3000ft 1004 No Significant change ULAA 251430Z 13002MPS 100V170 9999 SCT030 10/06 Q1004 R08/CLRD70 NOSIG RMK QFE752/1003
VFR 11°C / 6°C 150º variable 110º to 200º 4kt >10km - Scattered Clouds 3000ft 1004 No Significant change ULAA 251400Z 15002MPS 110V200 9999 SCT030 11/06 Q1004 R08/CLRD70 NOSIG RMK QFE752/1003
MVFR 12°C / 6°C 160º variable 090º to 210º 6kt >10km - Broken Clouds 3000ft 1004 No Significant change ULAA 251330Z 16003MPS 090V210 9999 BKN030 12/06 Q1004 R08/CLRD70 NOSIG RMK QFE752/1003
13°C / 6°C 170º variable 100º to 220º 6kt >10km - 1005 No Significant change. Runway 08: Damp, 51-100% contamination with <1mm, friction coefficient 0.65. ULAA 251300Z 17003MPS 100V220 9999 BKN/// 13/06 Q1005 R08/190065 NOSIG RMK QFE752/1003
13°C / 7°C 150º variable 100º to 220º 10kt >10km - 1005 No Significant change. Runway 08: Damp, 51-100% contamination with <1mm, friction coefficient 0.65. ULAA 251230Z 15005MPS 100V220 9999 BKN/// 13/07 Q1005 R08/190065 NOSIG RMK QFE752/1003
VFR 13°C / 6°C 140º variable 110º to 200º 10kt >10km - Scattered Clouds 3000ft 1005 No Significant change. Runway 08: Damp, 51-100% contamination with <1mm, friction coefficient 0.65. ULAA 251200Z 14005MPS 110V200 9999 SCT030 13/06 Q1005 R08/190065 NOSIG RMK QFE752/1003
MVFR 12°C / 6°C 180º variable 120º to 210º 8kt >10km - Broken Clouds 3000ft 1005 No Significant change. Runway 08: Wet or puddles, 51-100% contamination with <1mm, friction coefficient 0.60. ULAA 251130Z 18004MPS 120V210 9999 BKN030 12/06 Q1005 R08/290060 NOSIG RMK QFE753/1004
MVFR 12°C / 6°C 180º variable 140º to 220º 8kt >10km - Broken Clouds 2700ft 1005 No Significant change. Runway 08: Wet or puddles, 51-100% contamination with <1mm, friction coefficient 0.60. ULAA 251100Z 18004MPS 140V220 9999 BKN027 12/06 Q1005 R08/290060 NOSIG RMK QFE753/1004
MVFR 13°C / 6°C 190º variable 140º to 240º 8kt >10km - Broken Clouds 2700ft 1005 No Significant change. Runway 08: Wet or puddles, 51-100% contamination with <1mm, friction coefficient 0.60. ULAA 251030Z 19004MPS 140V240 9999 BKN027 13/06 Q1005 R08/290060 NOSIG RMK QFE752/1003
MVFR 12°C / 6°C 180º variable 150º to 210º 10kt >10km - Broken Clouds 2600ft 1004 No Significant change. Runway 08: Wet or puddles, 51-100% contamination with <1mm, friction coefficient 0.60. ULAA 251000Z 18005MPS 150V210 9999 BKN026 12/06 Q1004 R08/290060 NOSIG RMK QFE752/1003
MVFR 12°C / 7°C 160º variable 100º to 220º 6kt >10km - Broken Clouds 2600ft 1004 No Significant change. Runway 08: Wet or puddles, 51-100% contamination with <1mm, friction coefficient 0.60. ULAA 250930Z 16003MPS 100V220 9999 BKN026 12/07 Q1004 R08/290060 NOSIG RMK QFE752/1003
MVFR 11°C / 7°C 180º variable 140º to 210º 10kt >10km - Broken Clouds 3000ft 1005 No Significant change. Runway 08: Wet or puddles, 51-100% contamination with <1mm, friction coefficient 0.60. ULAA 250900Z 18005MPS 140V210 9999 BKN030 11/07 Q1005 R08/290060 NOSIG RMK QFE752/1003
MVFR 11°C / 7°C 180º variable 150º to 210º 8kt >10km - Broken Clouds 1700ft 1005 No Significant change. Runway 08: Wet or puddles, 51-100% contamination with <1mm, friction coefficient 0.60. ULAA 250830Z 18004MPS 150V210 9999 BKN017 11/07 Q1005 R08/290060 NOSIG RMK QFE752/1003
MVFR 11°C / 8°C 180º variable 130º to 210º 8kt >10km - Broken Clouds 1500ft 1005 No Significant change. Runway 08: Wet or puddles, 51-100% contamination with <1mm, friction coefficient 0.60. ULAA 250800Z 18004MPS 130V210 9999 BKN015 11/08 Q1005 R08/290060 NOSIG RMK QFE752/1003
MVFR 10°C / 8°C 170º variable 120º to 230º 6kt >10km - Overcast 1400ft 1005 No Significant change. Runway 08: Wet or puddles, 51-100% contamination with <1mm, friction coefficient 0.60. ULAA 250730Z 17003MPS 120V230 9999 OVC014 10/08 Q1005 R08/290060 NOSIG RMK QFE753/1004
MVFR 10°C / 8°C 160º variable 100º to 220º 6kt >10km - Overcast 1300ft 1005 No Significant change. Runway 08: Wet or puddles, 51-100% contamination with <1mm, friction coefficient 0.60. ULAA 250700Z 16003MPS 100V220 9999 OVC013 10/08 Q1005 R08/290060 NOSIG RMK QFE753/1004
MVFR 10°C / 8°C 180º variable 140º to 210º 8kt >10km - Overcast 1100ft 1005 No Significant change. Runway 08: Wet or puddles, 51-100% contamination with <1mm, friction coefficient 0.60. ULAA 250630Z 18004MPS 140V210 9999 OVC011 10/08 Q1005 R08/290060 NOSIG RMK QFE753/1004
MVFR 10°C / 8°C 160º variable 100º to 220º 6kt >10km - Overcast 1000ft 1005 No Significant change. Runway 08: Wet or puddles, 51-100% contamination with <1mm, friction coefficient 0.60. ULAA 250600Z 16003MPS 100V220 9999 OVC010 10/08 Q1005 R08/290060 NOSIG RMK QFE753/1004

VFR

9°C / 6°C

[Több]
Szél 140º variable 100º to 170º 4kt
Látási viszonyok >10km
Időjárás -
Felhők Scattered Clouds 3000ft
Légnyomás 1005
Módosítás No Significant change
Nyers ULAA 251730Z 14002MPS 100V170 9999 SCT030 09/06 Q1005 R08/CLRD70 NOSIG RMK QFE753/1004

VFR

10°C / 5°C

[Több]
Szél 160º variable 120º to 210º 4kt
Látási viszonyok >10km
Időjárás -
Felhők Scattered Clouds 3000ft
Légnyomás 1005
Módosítás No Significant change
Nyers ULAA 251700Z 16002MPS 120V210 9999 SCT030 10/05 Q1005 R08/CLRD70 NOSIG RMK QFE753/1004

VFR

10°C / 6°C

[Több]
Szél 150º variable 110º to 200º 4kt
Látási viszonyok >10km
Időjárás -
Felhők Scattered Clouds 3000ft
Légnyomás 1005
Módosítás No Significant change
Nyers ULAA 251630Z 15002MPS 110V200 9999 SCT030 10/06 Q1005 R08/CLRD70 NOSIG RMK QFE753/1004

VFR

10°C / 6°C

[Több]
Szél 150º variable 100º to 200º 6kt
Látási viszonyok >10km
Időjárás -
Felhők Scattered Clouds 3000ft
Légnyomás 1005
Módosítás No Significant change
Nyers ULAA 251600Z 15003MPS 100V200 9999 SCT030 10/06 Q1005 R08/CLRD70 NOSIG RMK QFE753/1004

VFR

10°C / 6°C

[Több]
Szél 150º variable 110º to 190º 6kt
Látási viszonyok >10km
Időjárás -
Felhők Scattered Clouds 3000ft
Légnyomás 1005
Módosítás No Significant change
Nyers ULAA 251530Z 15003MPS 110V190 9999 SCT030 10/06 Q1005 R08/CLRD70 NOSIG RMK QFE753/1004

VFR

10°C / 6°C

[Több]
Szél 120º 4kt
Látási viszonyok >10km
Időjárás -
Felhők Scattered Clouds 3000ft
Légnyomás 1005
Módosítás No Significant change
Nyers ULAA 251500Z 12002MPS 9999 SCT030 10/06 Q1005 R08/CLRD70 NOSIG RMK QFE752/1003

VFR

10°C / 6°C

[Több]
Szél 130º variable 100º to 170º 4kt
Látási viszonyok >10km
Időjárás -
Felhők Scattered Clouds 3000ft
Légnyomás 1004
Módosítás No Significant change
Nyers ULAA 251430Z 13002MPS 100V170 9999 SCT030 10/06 Q1004 R08/CLRD70 NOSIG RMK QFE752/1003

VFR

11°C / 6°C

[Több]
Szél 150º variable 110º to 200º 4kt
Látási viszonyok >10km
Időjárás -
Felhők Scattered Clouds 3000ft
Légnyomás 1004
Módosítás No Significant change
Nyers ULAA 251400Z 15002MPS 110V200 9999 SCT030 11/06 Q1004 R08/CLRD70 NOSIG RMK QFE752/1003

MVFR

12°C / 6°C

[Több]
Szél 160º variable 090º to 210º 6kt
Látási viszonyok >10km
Időjárás -
Felhők Broken Clouds 3000ft
Légnyomás 1004
Módosítás No Significant change
Nyers ULAA 251330Z 16003MPS 090V210 9999 BKN030 12/06 Q1004 R08/CLRD70 NOSIG RMK QFE752/1003

13°C / 6°C

[Több]
Szél 170º variable 100º to 220º 6kt
Látási viszonyok >10km
Időjárás -
Felhők
Légnyomás 1005
Módosítás No Significant change. Runway 08: Damp, 51-100% contamination with <1mm, friction coefficient 0.65.
Nyers ULAA 251300Z 17003MPS 100V220 9999 BKN/// 13/06 Q1005 R08/190065 NOSIG RMK QFE752/1003

13°C / 7°C

[Több]
Szél 150º variable 100º to 220º 10kt
Látási viszonyok >10km
Időjárás -
Felhők
Légnyomás 1005
Módosítás No Significant change. Runway 08: Damp, 51-100% contamination with <1mm, friction coefficient 0.65.
Nyers ULAA 251230Z 15005MPS 100V220 9999 BKN/// 13/07 Q1005 R08/190065 NOSIG RMK QFE752/1003

VFR

13°C / 6°C

[Több]
Szél 140º variable 110º to 200º 10kt
Látási viszonyok >10km
Időjárás -
Felhők Scattered Clouds 3000ft
Légnyomás 1005
Módosítás No Significant change. Runway 08: Damp, 51-100% contamination with <1mm, friction coefficient 0.65.
Nyers ULAA 251200Z 14005MPS 110V200 9999 SCT030 13/06 Q1005 R08/190065 NOSIG RMK QFE752/1003

MVFR

12°C / 6°C

[Több]
Szél 180º variable 120º to 210º 8kt
Látási viszonyok >10km
Időjárás -
Felhők Broken Clouds 3000ft
Légnyomás 1005
Módosítás No Significant change. Runway 08: Wet or puddles, 51-100% contamination with <1mm, friction coefficient 0.60.
Nyers ULAA 251130Z 18004MPS 120V210 9999 BKN030 12/06 Q1005 R08/290060 NOSIG RMK QFE753/1004

MVFR

12°C / 6°C

[Több]
Szél 180º variable 140º to 220º 8kt
Látási viszonyok >10km
Időjárás -
Felhők Broken Clouds 2700ft
Légnyomás 1005
Módosítás No Significant change. Runway 08: Wet or puddles, 51-100% contamination with <1mm, friction coefficient 0.60.
Nyers ULAA 251100Z 18004MPS 140V220 9999 BKN027 12/06 Q1005 R08/290060 NOSIG RMK QFE753/1004

MVFR

13°C / 6°C

[Több]
Szél 190º variable 140º to 240º 8kt
Látási viszonyok >10km
Időjárás -
Felhők Broken Clouds 2700ft
Légnyomás 1005
Módosítás No Significant change. Runway 08: Wet or puddles, 51-100% contamination with <1mm, friction coefficient 0.60.
Nyers ULAA 251030Z 19004MPS 140V240 9999 BKN027 13/06 Q1005 R08/290060 NOSIG RMK QFE752/1003

MVFR

12°C / 6°C

[Több]
Szél 180º variable 150º to 210º 10kt
Látási viszonyok >10km
Időjárás -
Felhők Broken Clouds 2600ft
Légnyomás 1004
Módosítás No Significant change. Runway 08: Wet or puddles, 51-100% contamination with <1mm, friction coefficient 0.60.
Nyers ULAA 251000Z 18005MPS 150V210 9999 BKN026 12/06 Q1004 R08/290060 NOSIG RMK QFE752/1003

MVFR

12°C / 7°C

[Több]
Szél 160º variable 100º to 220º 6kt
Látási viszonyok >10km
Időjárás -
Felhők Broken Clouds 2600ft
Légnyomás 1004
Módosítás No Significant change. Runway 08: Wet or puddles, 51-100% contamination with <1mm, friction coefficient 0.60.
Nyers ULAA 250930Z 16003MPS 100V220 9999 BKN026 12/07 Q1004 R08/290060 NOSIG RMK QFE752/1003

MVFR

11°C / 7°C

[Több]
Szél 180º variable 140º to 210º 10kt
Látási viszonyok >10km
Időjárás -
Felhők Broken Clouds 3000ft
Légnyomás 1005
Módosítás No Significant change. Runway 08: Wet or puddles, 51-100% contamination with <1mm, friction coefficient 0.60.
Nyers ULAA 250900Z 18005MPS 140V210 9999 BKN030 11/07 Q1005 R08/290060 NOSIG RMK QFE752/1003

MVFR

11°C / 7°C

[Több]
Szél 180º variable 150º to 210º 8kt
Látási viszonyok >10km
Időjárás -
Felhők Broken Clouds 1700ft
Légnyomás 1005
Módosítás No Significant change. Runway 08: Wet or puddles, 51-100% contamination with <1mm, friction coefficient 0.60.
Nyers ULAA 250830Z 18004MPS 150V210 9999 BKN017 11/07 Q1005 R08/290060 NOSIG RMK QFE752/1003

MVFR

11°C / 8°C

[Több]
Szél 180º variable 130º to 210º 8kt
Látási viszonyok >10km
Időjárás -
Felhők Broken Clouds 1500ft
Légnyomás 1005
Módosítás No Significant change. Runway 08: Wet or puddles, 51-100% contamination with <1mm, friction coefficient 0.60.
Nyers ULAA 250800Z 18004MPS 130V210 9999 BKN015 11/08 Q1005 R08/290060 NOSIG RMK QFE752/1003

MVFR

10°C / 8°C

[Több]
Szél 170º variable 120º to 230º 6kt
Látási viszonyok >10km
Időjárás -
Felhők Overcast 1400ft
Légnyomás 1005
Módosítás No Significant change. Runway 08: Wet or puddles, 51-100% contamination with <1mm, friction coefficient 0.60.
Nyers ULAA 250730Z 17003MPS 120V230 9999 OVC014 10/08 Q1005 R08/290060 NOSIG RMK QFE753/1004

MVFR

10°C / 8°C

[Több]
Szél 160º variable 100º to 220º 6kt
Látási viszonyok >10km
Időjárás -
Felhők Overcast 1300ft
Légnyomás 1005
Módosítás No Significant change. Runway 08: Wet or puddles, 51-100% contamination with <1mm, friction coefficient 0.60.
Nyers ULAA 250700Z 16003MPS 100V220 9999 OVC013 10/08 Q1005 R08/290060 NOSIG RMK QFE753/1004

MVFR

10°C / 8°C

[Több]
Szél 180º variable 140º to 210º 8kt
Látási viszonyok >10km
Időjárás -
Felhők Overcast 1100ft
Légnyomás 1005
Módosítás No Significant change. Runway 08: Wet or puddles, 51-100% contamination with <1mm, friction coefficient 0.60.
Nyers ULAA 250630Z 18004MPS 140V210 9999 OVC011 10/08 Q1005 R08/290060 NOSIG RMK QFE753/1004

MVFR

10°C / 8°C

[Több]
Szél 160º variable 100º to 220º 6kt
Látási viszonyok >10km
Időjárás -
Felhők Overcast 1000ft
Légnyomás 1005
Módosítás No Significant change. Runway 08: Wet or puddles, 51-100% contamination with <1mm, friction coefficient 0.60.
Nyers ULAA 250600Z 16003MPS 100V220 9999 OVC010 10/08 Q1005 R08/290060 NOSIG RMK QFE753/1004

TAF 64.6°É 40.72°K (ULAA)-ért

From till


From till Wind 130º 6kt. Visibility 10km or more. Broken Clouds 1700ft.
Temporarly from till Wind variable 2kt. Visibility 498.895m. Light Showers Rain Fog . Broken Clouds 200ft. Broken Clouds 1600ft.
Becoming from till Wind 90º 6kt. Visibility 10km or more. Broken Clouds 1700ft.

Nyers: TAF ULAA 251700Z 2518/2618 13003MPS 9999 BKN017 TEMPO 2518/2603 VRB01MPS 0500 -SHRA FG BKN002 BKN016CB BECMG 2603/2605 09003MPS

Aktuális műholdas és esőképek ezen a helyen: 64.6°É 40.72°K

A helyszín jelölő a következő helyen van elhelyezve: 64.6°É 40.72°K. [Több]

A valós idejű műholdas kép ötvözi a nappali látható fényt az éjszakai infravörös sugárzással. Éjjel a kép nem sötét, mivel az infravörös sugárzás képes érzékelni a hőmérséklet-különbségeket. Sajnos az alacsony felhőket és a ködöt nehéz megkülönböztetni a talaj hőmérsékletétől, így az éjszaka folyamán szinte láthatatlanok lehetnek. A Meteosat európai műholdképei valós időben frissülnek minden 5 percben. A GOES-16/GOES-17 (Észak- és Dél-Amerika) és Himawari (Ázsia) képei 10 percenként frissülnek.

Minden jog fenntartva 2021 EUMETSAT / meteoblue. / Minden jog fenntartva 2021 meteoblue

Radarkép és ultrarövid távú csapadék-előrejelzés a következő helyhez: 64.6°É 40.72°K

Szitálás
Enyhe
Mérsékelt
Erős
Nagyon nehéz
Jégeső

A helyzetjelző helye: 64.6°É 40.72°K. Ez az animáció bemutatja a csapadékradart az elmúlt órára vonatkozóan, valamint előrejelzést az elkövetkező 1 órára. A szitáló eső vagy enyhe hóesés láthatatlan lehet a radar számára. A csapadék intenzitása színkóddal van jelölve, a világoskéktől a narancssárgáig.